Time;durP1;ratioP1;P1;durP2;ratioP2;P2;SDS_P1;SDS_P2;PMS_P1;PMS_P2;Temp;Humidity;BMP_temperature;BMP_pressure;BME280_temperature;BME280_humidity;BME280_pressure;Samples;Min_cycle;Max_cycle;Signal;HPM_P1;HPM_P2
2023/07/24 00:00:11;;;;;;;;;;;26.50;92.20;26.50;98865.00;;;;337071;28;97634;-87
2023/07/24 00:00:23;;;;;;;;;;;26.50;92.20;26.50;98858.00;;;;336799;28;82488;-87
2023/07/24 00:00:35;;;;;;;;;;;26.50;92.20;26.40;98854.00;;;;337048;28;96970;-87
2023/07/24 00:00:47;;;;;;;;;;;26.50;92.30;26.50;98853.00;;;;336717;28;82500;-87
2023/07/24 00:00:59;;;;;;;;;;;26.50;92.30;26.50;98858.00;;;;336005;28;96667;-87
2023/07/24 00:01:11;;;;;;;;;;;26.50;92.30;26.60;98853.00;;;;336593;28;82464;-87
2023/07/24 00:01:23;;;;;;;;;;;26.50;92.20;26.50;98854.00;;;;334515;29;95126;-88
2023/07/24 00:01:35;;;;;;;;;;;26.50;92.30;26.40;98857.00;;;;336850;28;83486;-87
2023/07/24 00:01:46;;;;;;;;;;;26.50;92.30;26.50;98852.00;;;;334611;29;96413;-87
2023/07/24 00:01:58;;;;;;;;;;;26.50;92.30;26.50;98858.00;;;;334225;29;83494;-87
2023/07/24 00:02:10;;;;;;;;;;;26.50;92.30;26.40;98856.00;;;;335832;28;98264;-87
2023/07/24 00:02:22;;;;;;;;;;;26.50;92.40;26.40;98851.00;;;;338035;28;83491;-88
2023/07/24 00:02:33;;;;;;;;;;;26.50;92.40;26.40;98852.00;;;;335940;28;94227;-88
2023/07/24 00:02:45;;;;;;;;;;;26.50;92.40;26.50;98852.00;;;;335264;29;82636;-87
2023/07/24 00:02:57;;;;;;;;;;;26.50;92.30;26.50;98853.00;;;;336097;28;94328;-87
2023/07/24 00:03:09;;;;;;;;;;;26.50;92.30;26.50;98851.00;;;;335432;29;83398;-87
2023/07/24 00:03:21;;;;;;;;;;;26.50;92.40;26.50;98856.00;;;;335991;28;96536;-87
2023/07/24 00:03:33;;;;;;;;;;;26.50;92.40;26.40;98858.00;;;;335535;29;83420;-87
2023/07/24 00:03:45;;;;;;;;;;;26.50;92.40;26.40;98854.00;;;;332474;29;95465;-88
2023/07/24 00:03:58;;;;;;;;;;;26.50;92.40;26.40;98847.00;;;;337575;28;83477;-87
2023/07/24 00:04:10;;;;;;;;;;;26.50;92.40;26.40;98854.00;;;;335332;28;97133;-87
2023/07/24 00:04:22;;;;;;;;;;;26.50;92.40;26.40;98857.00;;;;335339;29;82552;-87
2023/07/24 00:04:34;;;;;;;;;;;26.50;92.50;26.40;98849.00;;;;333332;29;95324;-87
2023/07/24 00:04:45;;;;;;;;;;;26.50;92.50;26.40;98851.00;;;;332865;29;83260;-87
2023/07/24 00:04:57;;;;;;;;;;;26.50;92.50;26.50;98850.00;;;;333504;29;95564;-87
2023/07/24 00:05:10;;;;;;;;;;;26.50;92.40;26.50;98856.00;;;;335361;29;83533;-87
2023/07/24 00:05:21;;;;;;;;;;;26.50;92.40;26.50;98853.00;;;;336143;28;96667;-87
2023/07/24 00:05:34;;;;;;;;;;;26.50;92.30;26.50;98853.00;;;;334063;29;84045;-87
2023/07/24 00:05:46;;;;;;;;;;;26.50;92.40;26.40;98852.00;;;;335836;28;96732;-87
2023/07/24 00:05:59;;;;;;;;;;;26.50;92.40;26.40;98852.00;;;;335440;29;83440;-87
2023/07/24 00:06:11;;;;;;;;;;;26.50;92.40;26.40;98860.00;;;;335981;28;96211;-87
2023/07/24 00:06:23;;;;;;;;;;;26.50;92.40;26.40;98852.00;;;;336881;28;83291;-87
2023/07/24 00:06:34;;;;;;;;;;;26.50;92.40;26.40;98855.00;;;;334583;29;96354;-87
2023/07/24 00:06:46;;;;;;;;;;;26.50;92.60;26.40;98853.00;;;;336661;28;83441;-87
2023/07/24 00:06:58;;;;;;;;;;;26.50;92.60;26.40;98852.00;;;;334806;29;94214;-87
2023/07/24 00:07:10;;;;;;;;;;;26.50;92.50;26.50;98852.00;;;;335005;29;83478;-87
2023/07/24 00:07:23;;;;;;;;;;;26.50;92.40;26.50;98852.00;;;;334776;29;96752;-87
2023/07/24 00:07:34;;;;;;;;;;;26.50;92.30;26.50;98843.00;;;;335286;29;83533;-87
2023/07/24 00:07:46;;;;;;;;;;;26.50;92.30;26.40;98849.00;;;;335974;28;93844;-88
2023/07/24 00:07:58;;;;;;;;;;;26.50;92.30;26.50;98856.00;;;;338030;28;83444;-87
2023/07/24 00:08:10;;;;;;;;;;;26.50;92.30;26.50;98846.00;;;;334784;29;94173;-87
2023/07/24 00:08:22;;;;;;;;;;;26.50;92.30;26.50;98855.00;;;;335389;29;83477;-87
2023/07/24 00:08:34;;;;;;;;;;;26.50;92.50;26.50;98859.00;;;;335860;28;96656;-87
2023/07/24 00:08:46;;;;;;;;;;;26.50;92.40;26.40;98853.00;;;;336786;28;83338;-87
2023/07/24 00:08:57;;;;;;;;;;;26.50;92.50;26.40;98853.00;;;;334743;29;95471;-87
2023/07/24 00:09:09;;;;;;;;;;;26.50;92.50;26.40;98849.00;;;;335529;29;82434;-88
2023/07/24 00:09:21;;;;;;;;;;;26.50;92.60;26.30;98846.00;;;;333442;29;95431;-87
2023/07/24 00:09:33;;;;;;;;;;;26.50;92.60;26.40;98846.00;;;;335363;29;83397;-87
2023/07/24 00:09:44;;;;;;;;;;;26.50;92.60;26.40;98845.00;;;;334670;29;95292;-88
2023/07/24 00:09:56;;;;;;;;;;;26.50;92.50;26.40;98853.00;;;;336750;28;82430;-87
2023/07/24 00:10:08;;;;;;;;;;;26.50;92.40;26.50;98845.00;;;;334617;29;97548;-87
2023/07/24 00:10:20;;;;;;;;;;;26.50;92.40;26.50;98850.00;;;;335501;29;83265;-87
2023/07/24 00:10:32;;;;;;;;;;;26.50;92.40;26.50;98848.00;;;;334282;29;96950;-87
2023/07/24 00:10:44;;;;;;;;;;;26.50;92.50;26.50;98846.00;;;;335444;29;82505;-87
2023/07/24 00:10:56;;;;;;;;;;;26.50;92.50;26.60;98839.00;;;;334631;29;95366;-87
2023/07/24 00:11:08;;;;;;;;;;;26.50;92.50;26.50;98841.00;;;;338011;28;83467;-87
2023/07/24 00:11:20;;;;;;;;;;;26.50;92.60;26.50;98841.00;;;;334679;29;94321;-87
2023/07/24 00:11:31;;;;;;;;;;;26.50;92.60;26.40;98839.00;;;;334217;29;83360;-87
2023/07/24 00:11:43;;;;;;;;;;;26.50;92.70;26.40;98845.00;;;;335999;28;96805;-87
2023/07/24 00:11:55;;;;;;;;;;;26.50;92.70;26.40;98842.00;;;;335338;29;82609;-87
2023/07/24 00:12:07;;;;;;;;;;;26.50;92.70;26.40;98835.00;;;;334602;29;97619;-87
2023/07/24 00:12:19;;;;;;;;;;;26.50;92.60;26.30;98844.00;;;;338089;28;83304;-87
2023/07/24 00:12:31;;;;;;;;;;;26.50;92.60;26.30;98838.00;;;;334530;29;96413;-87
2023/07/24 00:12:42;;;;;;;;;;;26.50;92.60;26.30;98842.00;;;;335515;29;83368;-87
2023/07/24 00:12:54;;;;;;;;;;;26.50;92.70;26.30;98843.00;;;;333394;29;95516;-87
2023/07/24 00:13:06;;;;;;;;;;;26.50;92.70;26.30;98841.00;;;;335178;29;83439;-87
2023/07/24 00:13:18;;;;;;;;;;;26.50;92.70;26.30;98835.00;;;;334811;29;95597;-87
2023/07/24 00:13:30;;;;;;;;;;;26.50;92.70;26.30;98836.00;;;;335434;29;82444;-87
2023/07/24 00:13:42;;;;;;;;;;;26.50;92.70;26.30;98840.00;;;;336026;28;95545;-87
2023/07/24 00:13:53;;;;;;;;;;;26.50;92.70;26.30;98837.00;;;;335386;29;82619;-87
2023/07/24 00:14:05;;;;;;;;;;;26.50;92.70;26.30;98840.00;;;;334643;29;97512;-87
2023/07/24 00:14:17;;;;;;;;;;;26.50;92.80;26.30;98843.00;;;;336833;28;83372;-87
2023/07/24 00:14:29;;;;;;;;;;;26.50;92.80;26.30;98844.00;;;;334576;29;96432;-87
2023/07/24 00:14:40;;;;;;;;;;;26.40;93.00;26.40;98841.00;;;;336705;28;82582;-87
2023/07/24 00:14:52;;;;;;;;;;;26.40;92.70;26.40;98841.00;;;;336020;28;93857;-87
2023/07/24 00:15:05;;;;;;;;;;;26.50;92.80;26.30;98835.00;;;;336722;28;83469;-87
2023/07/24 00:15:16;;;;;;;;;;;26.40;92.80;26.30;98834.00;;;;337244;28;97345;-87
2023/07/24 00:15:28;;;;;;;;;;;26.40;92.80;26.30;98835.00;;;;336754;28;82637;-87
2023/07/24 00:15:40;;;;;;;;;;;26.40;92.80;26.30;98842.00;;;;335644;28;96884;-87
2023/07/24 00:15:52;;;;;;;;;;;26.40;92.80;26.30;98841.00;;;;336697;28;83484;-87
2023/07/24 00:16:08;;;;;;;;;;;26.40;92.80;26.40;98836.00;;;;333239;29;96555;-87
2023/07/24 00:16:20;;;;;;;;;;;26.40;92.70;26.40;98839.00;;;;338021;28;83447;-87
2023/07/24 00:16:31;;;;;;;;;;;26.50;92.90;26.40;98844.00;;;;335879;28;96865;-87
2023/07/24 00:16:43;;;;;;;;;;;26.40;92.80;26.40;98843.00;;;;336737;28;83610;-87
2023/07/24 00:16:55;;;;;;;;;;;26.40;92.80;26.30;98842.00;;;;337342;28;96731;-87
2023/07/24 00:17:07;;;;;;;;;;;26.40;92.90;26.30;98838.00;;;;336658;28;82554;-87
2023/07/24 00:17:19;;;;;;;;;;;26.40;92.80;26.30;98837.00;;;;336052;28;94239;-87
2023/07/24 00:17:31;;;;;;;;;;;26.40;92.90;26.30;98848.00;;;;336689;28;82538;-87
2023/07/24 00:17:43;;;;;;;;;;;26.40;92.90;26.40;98839.00;;;;333321;29;96437;-87
2023/07/24 00:17:55;;;;;;;;;;;26.40;92.90;26.40;98830.00;;;;335342;29;83485;-87
2023/07/24 00:18:07;;;;;;;;;;;26.40;92.90;26.40;98836.00;;;;334733;29;97170;-87
2023/07/24 00:18:18;;;;;;;;;;;26.40;92.90;26.40;98835.00;;;;334007;29;82531;-87
2023/07/24 00:18:30;;;;;;;;;;;26.40;92.80;26.40;98838.00;;;;335788;28;95870;-87
2023/07/24 00:18:42;;;;;;;;;;;26.40;92.70;26.40;98833.00;;;;336670;28;83466;-87
2023/07/24 00:18:54;;;;;;;;;;;26.40;92.90;26.30;98838.00;;;;333415;29;95369;-87
2023/07/24 00:19:06;;;;;;;;;;;26.40;92.80;26.40;98832.00;;;;334134;29;83409;-87
2023/07/24 00:19:17;;;;;;;;;;;26.40;92.80;26.40;98832.00;;;;335657;28;94282;-87
2023/07/24 00:19:29;;;;;;;;;;;26.40;92.90;26.30;98833.00;;;;335522;29;83384;-87
2023/07/24 00:19:41;;;;;;;;;;;26.40;92.90;26.30;98837.00;;;;333335;29;96593;-88
2023/07/24 00:19:53;;;;;;;;;;;26.40;92.90;26.30;98834.00;;;;335287;29;82551;-87
2023/07/24 00:20:06;;;;;;;;;;;26.40;93.00;26.20;98831.00;;;;335977;28;97546;-87
2023/07/24 00:20:18;;;;;;;;;;;26.40;93.00;26.20;98830.00;;;;334148;29;83534;-87
2023/07/24 00:20:30;;;;;;;;;;;26.40;93.00;26.20;98824.00;;;;334608;29;95881;-87
2023/07/24 00:20:41;;;;;;;;;;;26.40;93.00;26.30;98831.00;;;;336890;28;82464;-87
2023/07/24 00:20:53;;;;;;;;;;;26.40;93.00;26.20;98835.00;;;;336001;28;95463;-87
2023/07/24 00:21:05;;;;;;;;;;;26.40;93.00;26.30;98836.00;;;;335451;29;83372;-87
2023/07/24 00:21:17;;;;;;;;;;;26.40;93.00;26.30;98834.00;;;;335985;28;96602;-87
2023/07/24 00:21:30;;;;;;;;;;;26.40;93.00;26.30;98830.00;;;;336729;28;83554;-87
2023/07/24 00:21:42;;;;;;;;;;;26.40;93.00;26.30;98834.00;;;;331910;29;96627;-87
2023/07/24 00:21:53;;;;;;;;;;;26.40;93.00;26.30;98834.00;;;;336767;28;83509;-87
2023/07/24 00:22:05;;;;;;;;;;;26.40;93.00;26.30;98828.00;;;;338503;28;96492;-88
2023/07/24 00:22:17;;;;;;;;;;;26.40;93.10;26.30;98842.00;;;;336828;28;83411;-87
2023/07/24 00:22:29;;;;;;;;;;;26.40;93.10;26.30;98836.00;;;;335798;28;95548;-87
2023/07/24 00:22:41;;;;;;;;;;;26.40;93.10;26.30;98835.00;;;;335411;29;82429;-87
2023/07/24 00:22:53;;;;;;;;;;;26.40;93.20;26.20;98835.00;;;;334565;29;96990;-87
2023/07/24 00:23:04;;;;;;;;;;;26.40;93.20;26.20;98831.00;;;;336698;28;83531;-87
2023/07/24 00:23:16;;;;;;;;;;;26.40;93.20;26.30;98834.00;;;;333427;29;95078;-87
2023/07/24 00:23:28;;;;;;;;;;;26.40;93.10;26.30;98830.00;;;;335368;29;83448;-87
2023/07/24 00:23:40;;;;;;;;;;;26.30;93.10;26.30;98830.00;;;;337161;28;96261;-86
2023/07/24 00:23:52;;;;;;;;;;;26.40;93.20;26.30;98834.00;;;;337953;28;83451;-87
2023/07/24 00:24:04;;;;;;;;;;;26.40;93.20;26.20;98833.00;;;;333272;29;96512;-87
2023/07/24 00:27:05;;;;;;;;;;;26.40;93.30;26.20;98829.00;;;;335274;28;83380;-95
2023/07/24 00:27:17;;;;;;;;;;;26.40;93.30;26.20;98830.00;;;;333260;29;96144;-95
2023/07/24 00:27:29;;;;;;;;;;;26.40;93.30;26.20;98832.00;;;;334190;29;83494;-96
2023/07/24 00:27:41;;;;;;;;;;;26.40;93.30;26.20;98823.00;;;;333338;29;97783;-96
2023/07/24 00:27:53;;;;;;;;;;;26.30;93.20;26.20;98827.00;;;;332883;29;82257;-95
2023/07/24 00:28:05;;;;;;;;;;;26.40;93.30;26.20;98829.00;;;;334665;29;96763;-95
2023/07/24 00:28:17;;;;;;;;;;;26.40;93.30;26.20;98836.00;;;;336800;28;82494;-96
2023/07/24 00:28:28;;;;;;;;;;;26.40;93.30;26.20;98829.00;;;;335968;28;96347;-96
2023/07/24 00:28:40;;;;;;;;;;;26.30;93.30;26.20;98829.00;;;;334316;29;82420;-95
2023/07/24 00:28:52;;;;;;;;;;;26.40;93.40;26.30;98833.00;;;;333405;29;96872;-95
2023/07/24 00:29:04;;;;;;;;;;;26.30;93.50;26.30;98829.00;;;;334143;29;83377;-96
2023/07/24 00:29:16;;;;;;;;;;;26.30;93.20;26.20;98830.00;;;;332125;29;95820;-95
2023/07/24 00:29:27;;;;;;;;;;;26.30;93.30;26.20;98840.00;;;;334048;29;83470;-95
2023/07/24 00:29:39;;;;;;;;;;;26.30;93.40;26.20;98833.00;;;;334641;28;97925;-96
2023/07/24 00:29:51;;;;;;;;;;;26.30;93.40;26.20;98829.00;;;;335218;29;82488;-95
2023/07/24 00:30:03;;;;;;;;;;;26.30;93.40;26.20;98836.00;;;;332135;29;95894;-95
2023/07/24 00:30:15;;;;;;;;;;;26.30;93.40;26.10;98835.00;;;;334064;29;83483;-95
2023/07/24 00:30:27;;;;;;;;;;;26.30;93.40;26.10;98828.00;;;;334649;29;94592;-95
2023/07/24 00:30:39;;;;;;;;;;;26.30;93.40;26.10;98837.00;;;;332713;29;82579;-95
2023/07/24 00:30:51;;;;;;;;;;;26.30;93.40;26.10;98830.00;;;;334453;29;95563;-95
2023/07/24 00:31:03;;;;;;;;;;;26.30;93.40;26.10;98837.00;;;;335421;29;82401;-95
2023/07/24 00:31:14;;;;;;;;;;;26.30;93.40;26.10;98824.00;;;;334707;29;96312;-96
2023/07/24 00:31:26;;;;;;;;;;;26.30;93.40;26.10;98832.00;;;;332822;29;82537;-95
2023/07/24 00:31:38;;;;;;;;;;;26.30;93.50;26.10;98820.00;;;;331884;29;96387;-95
2023/07/24 00:31:50;;;;;;;;;;;26.30;93.50;26.20;98821.00;;;;334164;29;82543;-95
2023/07/24 00:32:02;;;;;;;;;;;26.30;93.40;26.20;98831.00;;;;336005;28;96534;-94
2023/07/24 00:32:13;;;;;;;;;;;26.30;93.50;26.10;98831.00;;;;335314;29;82585;-95
2023/07/24 00:32:25;;;;;;;;;;;26.30;93.50;26.10;98830.00;;;;334731;29;97202;-95
2023/07/24 00:32:37;;;;;;;;;;;26.30;93.50;26.10;98829.00;;;;336648;28;84483;-95
2023/07/24 00:32:49;;;;;;;;;;;26.30;93.50;26.10;98826.00;;;;334346;28;95438;-94
2023/07/24 00:33:01;;;;;;;;;;;26.20;93.50;26.10;98833.00;;;;337805;28;83474;-96
2023/07/24 00:33:13;;;;;;;;;;;26.20;93.60;26.10;98821.00;;;;334438;29;96612;-94
2023/07/24 00:33:25;;;;;;;;;;;26.20;93.50;26.10;98825.00;;;;336734;28;83391;-95
2023/07/24 00:33:37;;;;;;;;;;;26.20;93.50;26.20;98819.00;;;;336402;28;97747;-95
2023/07/24 00:33:48;;;;;;;;;;;26.20;93.40;26.20;98826.00;;;;335607;28;83594;-95
2023/07/24 00:34:00;;;;;;;;;;;26.30;93.50;26.20;98821.00;;;;334704;29;94245;-96
2023/07/24 00:34:12;;;;;;;;;;;26.30;93.50;26.20;98821.00;;;;334455;29;83615;-94
2023/07/24 00:34:24;;;;;;;;;;;26.30;93.60;26.20;98824.00;;;;333752;29;95590;-95
2023/07/24 00:34:39;;;;;;;;;;;26.30;93.70;26.10;98818.00;;;;336557;28;82586;-95
2023/07/24 00:34:52;;;;;;;;;;;26.30;93.60;26.10;98815.00;;;;330795;29;95804;-95
2023/07/24 00:35:04;;;;;;;;;;;26.30;93.70;26.20;98813.00;;;;334080;29;83623;-94
2023/07/24 00:35:16;;;;;;;;;;;26.30;93.60;26.20;98817.00;;;;333386;29;97012;-95
2023/07/24 00:35:28;;;;;;;;;;;26.30;93.70;26.20;98816.00;;;;332627;29;82532;-95
2023/07/24 00:35:40;;;;;;;;;;;26.20;93.60;26.20;98816.00;;;;332780;29;95949;-95
2023/07/24 00:35:57;;;;;;;;;;;26.20;93.60;26.10;98818.00;;;;334104;29;83507;-95
2023/07/24 00:36:09;;;;;;;;;;;26.20;93.70;26.10;98820.00;;;;332050;29;96554;-94
2023/07/24 00:36:21;;;;;;;;;;;26.20;93.60;26.10;98818.00;;;;331527;29;83574;-95
2023/07/24 00:36:33;;;;;;;;;;;26.20;93.70;26.20;98817.00;;;;333458;29;95572;-95
2023/07/24 00:36:45;;;;;;;;;;;26.20;93.70;26.20;98823.00;;;;334101;29;83438;-95
2023/07/24 00:36:57;;;;;;;;;;;26.30;93.70;26.20;98826.00;;;;333282;29;97123;-96
2023/07/24 00:37:08;;;;;;;;;;;26.20;93.60;26.20;98818.00;;;;335410;29;82494;-95
2023/07/24 00:37:20;;;;;;;;;;;26.20;93.70;26.20;98819.00;;;;333378;29;96715;-95
2023/07/24 00:37:32;;;;;;;;;;;26.20;93.70;26.20;98817.00;;;;333867;29;84114;-94
2023/07/24 00:37:44;;;;;;;;;;;26.20;93.70;26.20;98815.00;;;;333230;29;98007;-95
2023/07/24 00:37:56;;;;;;;;;;;26.20;93.60;26.20;98815.00;;;;334097;29;82606;-95
2023/07/24 00:38:08;;;;;;;;;;;26.20;93.80;26.20;98814.00;;;;333451;29;95567;-96
2023/07/24 00:38:20;;;;;;;;;;;26.20;93.70;26.20;98812.00;;;;331457;29;83400;-95
2023/07/24 00:38:31;;;;;;;;;;;26.20;93.80;26.10;98817.00;;;;332131;29;95790;-95
2023/07/24 00:38:43;;;;;;;;;;;26.20;93.80;26.10;98813.00;;;;334176;29;83392;-96
2023/07/24 00:38:55;;;;;;;;;;;26.30;93.90;26.20;98808.00;;;;331990;29;96837;-95
2023/07/24 00:39:07;;;;;;;;;;;26.20;93.70;26.20;98813.00;;;;335484;29;83291;-95
2023/07/24 00:39:19;;;;;;;;;;;26.20;93.70;26.20;98813.00;;;;333478;29;93012;-95
2023/07/24 00:39:31;;;;;;;;;;;26.20;93.70;26.10;98802.00;;;;336487;28;83547;-95
2023/07/24 00:39:42;;;;;;;;;;;26.20;93.80;26.10;98812.00;;;;333359;29;94774;-95
2023/07/24 00:39:54;;;;;;;;;;;26.20;93.80;26.10;98814.00;;;;335149;29;83509;-95
2023/07/24 00:40:06;;;;;;;;;;;26.20;93.80;26.10;98814.00;;;;333384;29;95965;-95
2023/07/24 00:40:18;;;;;;;;;;;26.20;93.80;26.10;98807.00;;;;331503;29;82661;-95
2023/07/24 00:40:30;;;;;;;;;;;26.20;93.80;26.10;98799.00;;;;333468;29;96103;-95
2023/07/24 00:40:42;;;;;;;;;;;26.20;93.80;26.00;98806.00;;;;335469;29;83398;-95
2023/07/24 00:40:54;;;;;;;;;;;26.20;93.80;26.00;98806.00;;;;331955;29;96739;-95
2023/07/24 00:41:06;;;;;;;;;;;26.20;93.80;26.00;98804.00;;;;333958;29;83456;-95
2023/07/24 00:41:17;;;;;;;;;;;26.20;93.80;26.00;98803.00;;;;333385;29;97218;-95
2023/07/24 00:41:29;;;;;;;;;;;26.20;93.80;26.10;98801.00;;;;332789;29;82610;-95
2023/07/24 00:41:42;;;;;;;;;;;26.20;93.80;26.10;98802.00;;;;333339;29;97721;-95
2023/07/24 00:41:54;;;;;;;;;;;26.20;93.80;26.10;98795.00;;;;332887;29;82544;-95
2023/07/24 00:42:06;;;;;;;;;;;26.20;93.70;26.10;98804.00;;;;332141;29;95838;-95
2023/07/24 00:42:18;;;;;;;;;;;26.20;93.80;26.10;98799.00;;;;332784;29;83454;-95
2023/07/24 00:42:30;;;;;;;;;;;26.20;93.80;26.20;98801.00;;;;334647;29;97035;-95
2023/07/24 00:42:47;;;;;;;;;;;26.20;93.80;26.10;98804.00;;;;334131;29;83293;-95
2023/07/24 00:42:59;;;;;;;;;;;26.20;93.90;26.20;98799.00;;;;333293;29;96016;-95
2023/07/24 00:43:10;;;;;;;;;;;26.20;93.80;26.30;98798.00;;;;332878;29;83494;-96
2023/07/24 00:43:22;;;;;;;;;;;26.20;93.80;26.20;98795.00;;;;333254;29;98132;-96
2023/07/24 00:43:34;;;;;;;;;;;26.20;93.80;26.20;98788.00;;;;332887;29;83491;-95
2023/07/24 00:43:46;;;;;;;;;;;26.20;93.80;26.30;98791.00;;;;334292;29;96665;-95
2023/07/24 00:43:58;;;;;;;;;;;26.20;93.70;26.30;98794.00;;;;335348;29;82611;-95
2023/07/24 00:44:10;;;;;;;;;;;26.20;93.70;26.20;98798.00;;;;333368;29;95928;-95
2023/07/24 00:44:22;;;;;;;;;;;26.20;93.80;26.20;98796.00;;;;334113;29;82584;-95
2023/07/24 00:44:34;;;;;;;;;;;26.20;93.80;26.20;98794.00;;;;334684;29;96211;-96
2023/07/24 00:44:45;;;;;;;;;;;26.20;93.80;26.10;98800.00;;;;335436;29;83395;-95
2023/07/24 00:44:57;;;;;;;;;;;26.20;93.80;26.10;98787.00;;;;333218;29;95642;-95
2023/07/24 00:45:09;;;;;;;;;;;26.20;93.80;26.10;98788.00;;;;334043;29;82513;-95
2023/07/24 00:45:22;;;;;;;;;;;26.20;93.80;26.10;98795.00;;;;333418;29;94939;-95
2023/07/24 00:45:33;;;;;;;;;;;26.20;93.80;26.00;98796.00;;;;334102;29;83547;-95
2023/07/24 00:45:45;;;;;;;;;;;26.20;93.90;26.00;98791.00;;;;334665;29;94087;-96
2023/07/24 00:45:57;;;;;;;;;;;26.20;93.90;26.00;98780.00;;;;334129;29;83364;-95
2023/07/24 00:46:09;;;;;;;;;;;26.20;93.90;26.00;98784.00;;;;333364;29;96395;-95
2023/07/24 00:46:21;;;;;;;;;;;26.20;93.90;26.10;98792.00;;;;335311;29;83585;-95
2023/07/24 00:46:33;;;;;;;;;;;26.20;93.80;26.10;98784.00;;;;333375;29;96260;-95
2023/07/24 00:46:45;;;;;;;;;;;26.20;93.90;26.00;98792.00;;;;332798;29;83188;-95
2023/07/24 00:46:57;;;;;;;;;;;26.20;93.90;26.00;98792.00;;;;333398;29;95861;-95
2023/07/24 00:47:09;;;;;;;;;;;26.20;93.90;26.00;98788.00;;;;335386;29;83439;-94
2023/07/24 00:47:21;;;;;;;;;;;26.20;93.90;26.00;98783.00;;;;333129;29;96353;-95
2023/07/24 00:47:33;;;;;;;;;;;26.20;94.00;26.00;98787.00;;;;335255;29;83560;-94
2023/07/24 00:47:45;;;;;;;;;;;26.20;94.20;26.00;98781.00;;;;334747;29;96429;-95
2023/07/24 00:47:58;;;;;;;;;;;26.20;94.00;26.00;98784.00;;;;334301;29;82507;-95
2023/07/24 00:48:10;;;;;;;;;;;26.10;93.90;26.00;98777.00;;;;332878;29;97014;-95
2023/07/24 00:48:22;;;;;;;;;;;26.20;93.90;26.00;98776.00;;;;333834;29;84129;-95
2023/07/24 00:48:34;;;;;;;;;;;26.10;94.00;26.00;98782.00;;;;334593;29;95623;-95
2023/07/24 00:48:46;;;;;;;;;;;26.10;94.00;26.00;98776.00;;;;335389;29;82499;-95
2023/07/24 00:49:01;;;;;;;;;;;26.10;94.00;26.00;98773.00;;;;333401;29;93149;-96
2023/07/24 00:49:12;;;;;;;;;;;26.10;94.00;26.00;98772.00;;;;334135;29;83452;-95
2023/07/24 00:49:24;;;;;;;;;;;26.20;93.90;26.00;98778.00;;;;334669;29;95947;-95
2023/07/24 00:49:36;;;;;;;;;;;26.10;93.90;26.00;98776.00;;;;335258;29;83586;-95
2023/07/24 00:49:48;;;;;;;;;;;26.10;94.00;26.00;98781.00;;;;333282;29;96904;-96
2023/07/24 00:50:00;;;;;;;;;;;26.10;94.00;26.00;98781.00;;;;332859;29;82469;-96
2023/07/24 00:50:12;;;;;;;;;;;26.20;94.00;26.00;98773.00;;;;334570;29;96987;-95
2023/07/24 00:50:24;;;;;;;;;;;26.10;94.00;26.00;98774.00;;;;335360;29;83526;-96
2023/07/24 00:50:36;;;;;;;;;;;26.10;94.00;26.00;98773.00;;;;335974;28;96586;-95
2023/07/24 00:50:47;;;;;;;;;;;26.10;94.00;26.00;98773.00;;;;335076;29;83512;-95
2023/07/24 00:50:59;;;;;;;;;;;26.10;93.90;26.10;98765.00;;;;333377;29;95047;-95
2023/07/24 00:51:11;;;;;;;;;;;26.10;93.90;26.10;98777.00;;;;336751;28;83376;-95
2023/07/24 00:51:23;;;;;;;;;;;26.10;94.00;26.10;98769.00;;;;334685;29;94234;-96
2023/07/24 00:51:34;;;;;;;;;;;26.10;94.00;26.10;98781.00;;;;336601;28;83593;-96
2023/07/24 00:51:46;;;;;;;;;;;26.20;94.00;26.00;98770.00;;;;333394;29;96182;-95
2023/07/24 00:51:58;;;;;;;;;;;26.10;93.90;26.00;98769.00;;;;332852;29;83470;-96
2023/07/24 00:52:10;;;;;;;;;;;26.10;94.00;26.00;98769.00;;;;334431;29;94138;-95
2023/07/24 00:52:22;;;;;;;;;;;26.10;94.10;26.00;98770.00;;;;334131;29;83676;-95
2023/07/24 00:52:34;;;;;;;;;;;26.10;94.10;26.00;98771.00;;;;333301;29;95775;-95
2023/07/24 00:52:45;;;;;;;;;;;26.10;94.00;26.10;98771.00;;;;333816;29;83537;-95
2023/07/24 00:52:57;;;;;;;;;;;26.10;94.00;26.10;98772.00;;;;334588;29;95808;-95
2023/07/24 00:53:11;;;;;;;;;;;26.10;93.90;26.10;98763.00;;;;335438;29;83415;-95
2023/07/24 00:53:23;;;;;;;;;;;26.10;93.90;26.10;98776.00;;;;331963;29;96473;-96
2023/07/24 00:53:35;;;;;;;;;;;26.10;94.00;26.10;98764.00;;;;336628;28;83464;-95
2023/07/24 00:53:47;;;;;;;;;;;26.10;94.00;26.00;98775.00;;;;334547;29;97546;-96
2023/07/24 00:54:00;;;;;;;;;;;26.10;94.10;26.00;98770.00;;;;335554;29;83420;-95
2023/07/24 00:54:12;;;;;;;;;;;26.20;94.10;26.10;98776.00;;;;335854;28;96866;-96
2023/07/24 00:54:24;;;;;;;;;;;26.10;94.00;26.10;98769.00;;;;334104;29;82467;-95
2023/07/24 00:54:36;;;;;;;;;;;26.10;94.00;26.00;98774.00;;;;335927;28;96415;-95
2023/07/24 00:54:47;;;;;;;;;;;26.10;94.00;26.00;98770.00;;;;335402;29;83429;-95
2023/07/24 00:54:59;;;;;;;;;;;26.10;94.00;26.00;98767.00;;;;333295;29;96110;-95
2023/07/24 00:55:12;;;;;;;;;;;26.10;94.00;26.10;98771.00;;;;334135;29;83394;-96
2023/07/24 00:55:24;;;;;;;;;;;26.10;94.00;26.10;98777.00;;;;334584;29;97079;-95
2023/07/24 00:55:36;;;;;;;;;;;26.10;94.00;26.10;98773.00;;;;335279;29;82531;-95
2023/07/24 00:55:48;;;;;;;;;;;26.20;94.10;26.10;98772.00;;;;333373;29;96367;-95
2023/07/24 00:56:00;;;;;;;;;;;26.20;94.10;26.10;98775.00;;;;335584;29;83298;-96
2023/07/24 00:56:12;;;;;;;;;;;26.20;94.10;26.10;98772.00;;;;335985;28;95520;-96
2023/07/24 00:56:23;;;;;;;;;;;26.10;94.10;26.20;98768.00;;;;335065;29;83498;-96
2023/07/24 00:56:35;;;;;;;;;;;26.20;94.10;26.30;98774.00;;;;334669;29;96824;-95
2023/07/24 00:56:47;;;;;;;;;;;26.20;94.00;26.30;98771.00;;;;334156;29;82522;-94
2023/07/24 00:56:59;;;;;;;;;;;26.20;94.00;26.20;98770.00;;;;333528;29;95887;-95
2023/07/24 00:57:11;;;;;;;;;;;26.20;94.00;26.20;98764.00;;;;334165;29;83447;-95
2023/07/24 00:57:23;;;;;;;;;;;26.20;94.00;26.20;98769.00;;;;336020;28;95628;-95
2023/07/24 00:57:35;;;;;;;;;;;26.20;94.00;26.20;98772.00;;;;337825;28;83508;-96
2023/07/24 00:57:47;;;;;;;;;;;26.20;94.00;26.20;98774.00;;;;336041;28;97803;-95
2023/07/24 00:57:59;;;;;;;;;;;26.20;94.00;26.20;98772.00;;;;336831;28;83387;-95
2023/07/24 00:58:11;;;;;;;;;;;26.20;94.00;26.20;98773.00;;;;334666;29;96123;-95
2023/07/24 00:58:23;;;;;;;;;;;26.20;94.00;26.20;98770.00;;;;335412;29;83376;-95
2023/07/24 00:58:36;;;;;;;;;;;26.20;94.00;26.20;98781.00;;;;334701;29;96448;-95
2023/07/24 00:58:48;;;;;;;;;;;26.20;94.00;26.20;98773.00;;;;334170;29;82489;-95
2023/07/24 00:59:00;;;;;;;;;;;26.20;94.00;26.10;98778.00;;;;334764;29;96662;-95
2023/07/24 00:59:12;;;;;;;;;;;26.20;94.00;26.10;98772.00;;;;335514;29;83390;-95
2023/07/24 00:59:24;;;;;;;;;;;26.20;94.00;26.10;98776.00;;;;334724;29;97292;-95
2023/07/24 00:59:36;;;;;;;;;;;26.20;94.00;26.10;98781.00;;;;336458;28;84391;-95
2023/07/24 00:59:47;;;;;;;;;;;26.20;94.00;26.00;98779.00;;;;334629;29;96376;-95
2023/07/24 00:59:59;;;;;;;;;;;26.20;94.00;26.00;98783.00;;;;331791;29;82482;-96
2023/07/24 01:00:11;;;;;;;;;;;26.20;94.00;26.10;98783.00;;;;333435;29;96452;-95
2023/07/24 01:00:23;;;;;;;;;;;26.20;94.00;26.10;98786.00;;;;332791;29;82596;-95
2023/07/24 01:00:35;;;;;;;;;;;26.20;94.00;26.10;98785.00;;;;333460;29;95721;-95
2023/07/24 01:00:47;;;;;;;;;;;26.20;93.90;26.10;98793.00;;;;336746;28;83475;-95
2023/07/24 01:00:59;;;;;;;;;;;26.20;93.90;26.10;98793.00;;;;334583;29;96763;-95
2023/07/24 01:01:10;;;;;;;;;;;26.20;93.90;26.10;98785.00;;;;336940;28;83131;-95
2023/07/24 01:01:23;;;;;;;;;;;26.20;93.90;26.10;98793.00;;;;333525;29;95943;-95
2023/07/24 01:01:35;;;;;;;;;;;26.20;93.80;26.10;98793.00;;;;335409;29;83656;-95
2023/07/24 01:01:47;;;;;;;;;;;26.20;93.80;26.10;98795.00;;;;332101;29;95747;-95
2023/07/24 01:01:58;;;;;;;;;;;26.20;93.80;26.20;98792.00;;;;335513;29;82473;-95
2023/07/24 01:02:11;;;;;;;;;;;26.10;93.80;26.10;98794.00;;;;334545;29;95733;-95